Time;durP1;ratioP1;P1;durP2;ratioP2;P2;SDS_P1;SDS_P2;PMS_P1;PMS_P2;Temp;Humidity;BMP_temperature;BMP_pressure;BME280_temperature;BME280_humidity;BME280_pressure;Samples;Min_cycle;Max_cycle;Signal;HPM_P1;HPM_P2
2021/06/16 00:00:18;;;;;;;2.45;2.15;;;;;;;;;;5096874;28;20546;-74
2021/06/16 00:02:44;;;;;;;2.60;2.17;;;;;;;;;;5097039;28;20059;-74
2021/06/16 00:05:12;;;;;;;2.05;1.85;;;;;;;;;;5095746;28;20074;-75
2021/06/16 00:07:38;;;;;;;3.72;2.50;;;;;;;;;;5095507;28;20073;-74
2021/06/16 00:10:05;;;;;;;3.50;2.30;;;;;;;;;;5095038;28;20020;-74
2021/06/16 00:12:31;;;;;;;3.47;2.25;;;;;;;;;;5093992;28;20089;-74
2021/06/16 00:14:58;;;;;;;3.10;2.15;;;;;;;;;;5096145;28;20020;-74
2021/06/16 00:17:24;;;;;;;3.38;2.22;;;;;;;;;;5092300;28;20390;-73
2021/06/16 00:19:50;;;;;;;2.70;2.20;;;;;;;;;;5093495;28;20020;-74
2021/06/16 00:22:16;;;;;;;2.58;2.08;;;;;;;;;;5093428;28;20028;-73
2021/06/16 00:24:42;;;;;;;2.95;2.47;;;;;;;;;;5091811;28;20470;-73
2021/06/16 00:27:08;;;;;;;2.35;2.00;;;;;;;;;;5093268;28;20399;-73
2021/06/16 00:29:34;;;;;;;2.53;2.30;;;;;;;;;;5094516;28;20103;-75
2021/06/16 00:32:01;;;;;;;3.75;2.60;;;;;;;;;;5095322;28;20107;-75
2021/06/16 00:34:27;;;;;;;2.78;2.30;;;;;;;;;;5092608;28;20394;-74
2021/06/16 00:36:53;;;;;;;3.20;2.65;;;;;;;;;;5092877;28;20108;-74
2021/06/16 00:39:19;;;;;;;2.92;2.25;;;;;;;;;;5091786;28;20404;-74
2021/06/16 00:41:45;;;;;;;3.00;2.25;;;;;;;;;;5093059;28;20027;-73
2021/06/16 00:44:12;;;;;;;2.88;2.58;;;;;;;;;;5092718;28;20016;-75
2021/06/16 00:46:38;;;;;;;3.38;2.55;;;;;;;;;;5093626;28;20035;-75
2021/06/16 00:49:05;;;;;;;3.25;2.42;;;;;;;;;;5093216;28;20028;-73
2021/06/16 00:51:31;;;;;;;3.58;2.80;;;;;;;;;;5088124;28;20024;-74
2021/06/16 00:53:57;;;;;;;4.47;3.00;;;;;;;;;;5092784;28;20027;-74
2021/06/16 00:56:23;;;;;;;3.80;2.70;;;;;;;;;;5092431;28;20103;-75
2021/06/16 00:58:50;;;;;;;3.45;2.95;;;;;;;;;;5087204;28;20028;-75
2021/06/16 01:01:24;;;;;;;3.85;2.75;;;;;;;;;;5095388;28;20032;-74
2021/06/16 01:03:55;;;;;;;3.85;2.90;;;;;;;;;;5093293;28;20020;-75
2021/06/16 01:06:31;;;;;;;4.35;2.75;;;;;;;;;;5092542;28;20118;-74
2021/06/16 01:09:03;;;;;;;4.00;2.67;;;;;;;;;;5092404;28;20093;-74
2021/06/16 01:11:32;;;;;;;4.20;3.25;;;;;;;;;;5092539;28;20423;-73
2021/06/16 01:14:05;;;;;;;3.53;2.90;;;;;;;;;;5091881;28;20020;-74
2021/06/16 01:16:38;;;;;;;4.18;3.00;;;;;;;;;;5092650;28;20035;-75
2021/06/16 01:19:30;;;;;;;4.40;3.40;;;;;;;;;;5091510;28;20024;-73
2021/06/16 01:21:59;;;;;;;3.28;2.70;;;;;;;;;;5078169;28;20036;-74
2021/06/16 01:24:27;;;;;;;5.20;2.90;;;;;;;;;;5092377;28;20028;-75
2021/06/16 01:26:54;;;;;;;4.00;2.75;;;;;;;;;;5092363;28;20092;-75
2021/06/16 01:29:32;;;;;;;2.85;2.55;;;;;;;;;;5092188;28;20103;-74
2021/06/16 01:31:59;;;;;;;6.85;3.63;;;;;;;;;;5094756;28;20024;-75
2021/06/16 01:34:26;;;;;;;5.68;2.88;;;;;;;;;;5091253;28;20028;-73
2021/06/16 01:36:53;;;;;;;3.65;2.75;;;;;;;;;;5092161;28;20479;-74
2021/06/16 01:39:21;;;;;;;4.43;3.28;;;;;;;;;;5091805;28;20035;-74
2021/06/16 01:41:49;;;;;;;3.85;3.00;;;;;;;;;;5091966;28;20020;-73
2021/06/16 01:44:16;;;;;;;4.35;3.20;;;;;;;;;;5091613;28;20024;-73
2021/06/16 01:46:43;;;;;;;4.18;3.03;;;;;;;;;;5091900;28;20028;-73
2021/06/16 01:49:10;;;;;;;5.20;3.30;;;;;;;;;;5092071;28;20426;-74
2021/06/16 01:51:36;;;;;;;5.20;3.50;;;;;;;;;;5091999;28;20050;-73
2021/06/16 01:54:03;;;;;;;5.57;3.20;;;;;;;;;;5096711;28;20166;-73
2021/06/16 01:56:29;;;;;;;4.78;3.30;;;;;;;;;;5093914;28;20108;-74
2021/06/16 01:58:56;;;;;;;5.38;3.78;;;;;;;;;;5092398;28;20024;-74
2021/06/16 02:01:23;;;;;;;5.50;3.70;;;;;;;;;;5093895;28;20031;-74
2021/06/16 02:03:50;;;;;;;3.15;2.60;;;;;;;;;;5093192;28;20405;-73
2021/06/16 02:06:18;;;;;;;2.45;2.20;;;;;;;;;;5091579;28;20040;-72
2021/06/16 02:08:46;;;;;;;1.70;1.60;;;;;;;;;;5091522;28;20050;-72
2021/06/16 02:11:13;;;;;;;1.75;1.65;;;;;;;;;;5091947;28;20103;-72
2021/06/16 02:13:40;;;;;;;1.65;1.55;;;;;;;;;;5091800;28;20028;-71
2021/06/16 02:16:13;;;;;;;3.47;2.30;;;;;;;;;;5083272;28;20103;-72
2021/06/16 02:18:46;;;;;;;1.92;1.73;;;;;;;;;;5091686;28;20032;-72
2021/06/16 02:21:13;;;;;;;1.92;1.77;;;;;;;;;;5091483;28;20040;-72
2021/06/16 02:23:40;;;;;;;2.50;2.00;;;;;;;;;;5091434;28;20039;-72
2021/06/16 02:26:07;;;;;;;4.25;2.10;;;;;;;;;;5088016;28;20032;-72
2021/06/16 02:28:33;;;;;;;2.25;1.90;;;;;;;;;;5091204;28;20399;-72
2021/06/16 02:30:59;;;;;;;3.88;2.20;;;;;;;;;;5093735;28;20020;-72
2021/06/16 02:33:25;;;;;;;2.10;1.90;;;;;;;;;;5096095;28;20021;-72
2021/06/16 02:35:51;;;;;;;2.60;1.90;;;;;;;;;;5094597;28;20486;-72
2021/06/16 02:38:21;;;;;;;4.72;2.50;;;;;;;;;;5095536;28;20035;-72
2021/06/16 02:40:48;;;;;;;2.30;1.70;;;;;;;;;;5095796;28;20085;-72
2021/06/16 02:43:14;;;;;;;2.55;1.77;;;;;;;;;;5095458;28;20035;-71
2021/06/16 02:45:41;;;;;;;2.15;1.50;;;;;;;;;;5094987;28;20020;-72
2021/06/16 02:48:08;;;;;;;1.73;1.23;;;;;;;;;;5094954;28;20478;-72
2021/06/16 02:50:36;;;;;;;2.42;1.42;;;;;;;;;;5095620;28;20024;-71
2021/06/16 02:53:03;;;;;;;1.40;1.30;;;;;;;;;;5095254;28;20020;-71
2021/06/16 02:55:30;;;;;;;1.60;1.50;;;;;;;;;;5092872;28;20114;-71
2021/06/16 02:57:57;;;;;;;2.45;1.30;;;;;;;;;;5091479;28;20028;-71
2021/06/16 03:00:23;;;;;;;2.03;1.42;;;;;;;;;;5095370;28;20043;-71
2021/06/16 03:02:50;;;;;;;1.08;1.08;;;;;;;;;;5096007;28;20497;-72
2021/06/16 03:05:18;;;;;;;1.20;1.20;;;;;;;;;;5094583;28;20043;-71
2021/06/16 03:07:45;;;;;;;0.93;0.93;;;;;;;;;;5094592;28;20020;-71
2021/06/16 03:10:11;;;;;;;1.90;1.60;;;;;;;;;;5094173;28;20024;-71
2021/06/16 03:12:38;;;;;;;1.95;1.20;;;;;;;;;;5095130;28;20020;-72
2021/06/16 03:15:05;;;;;;;1.65;1.55;;;;;;;;;;5093968;28;20035;-69
2021/06/16 03:17:31;;;;;;;1.25;1.15;;;;;;;;;;5085536;28;20067;-70
2021/06/16 03:19:58;;;;;;;1.33;1.23;;;;;;;;;;5094567;28;20051;-70
2021/06/16 03:22:24;;;;;;;1.15;1.10;;;;;;;;;;5094804;28;20055;-71
2021/06/16 03:24:51;;;;;;;1.10;1.10;;;;;;;;;;5094223;28;20040;-71
2021/06/16 03:27:21;;;;;;;1.10;1.10;;;;;;;;;;5094221;28;20024;-71
2021/06/16 03:29:48;;;;;;;1.00;1.00;;;;;;;;;;5094210;28;20364;-71
2021/06/16 03:32:15;;;;;;;0.75;0.75;;;;;;;;;;5095729;28;20012;-71
2021/06/16 03:34:41;;;;;;;1.52;1.10;;;;;;;;;;5094651;28;20024;-71
2021/06/16 03:37:09;;;;;;;0.82;0.82;;;;;;;;;;5094131;28;20028;-71
2021/06/16 03:39:36;;;;;;;0.90;0.90;;;;;;;;;;5093742;28;20031;-70
2021/06/16 03:42:03;;;;;;;1.25;1.10;;;;;;;;;;5093392;28;20493;-71
2021/06/16 03:44:30;;;;;;;1.10;1.10;;;;;;;;;;5093980;28;20050;-71
2021/06/16 03:46:57;;;;;;;1.10;1.10;;;;;;;;;;5092746;28;21680;-71
2021/06/16 03:49:23;;;;;;;1.38;1.05;;;;;;;;;;5094022;28;20120;-72
2021/06/16 03:51:50;;;;;;;1.17;1.17;;;;;;;;;;5093866;28;20035;-71
2021/06/16 03:54:16;;;;;;;1.25;1.20;;;;;;;;;;5093330;28;20028;-72
2021/06/16 03:56:46;;;;;;;1.00;1.00;;;;;;;;;;5093652;28;20060;-71
2021/06/16 03:59:12;;;;;;;1.83;1.10;;;;;;;;;;5085449;28;20074;-71
2021/06/16 04:01:39;;;;;;;1.48;1.25;;;;;;;;;;5095278;28;20091;-71
2021/06/16 04:04:06;;;;;;;1.40;1.08;;;;;;;;;;5094816;28;20032;-70
2021/06/16 04:06:33;;;;;;;0.90;0.90;;;;;;;;;;5093844;28;20128;-71
2021/06/16 04:08:59;;;;;;;1.23;1.08;;;;;;;;;;5093288;28;20024;-70
2021/06/16 04:11:25;;;;;;;1.48;1.10;;;;;;;;;;5093560;28;20031;-70
2021/06/16 04:13:51;;;;;;;1.42;1.33;;;;;;;;;;5093578;28;20029;-71
2021/06/16 04:16:17;;;;;;;1.27;1.17;;;;;;;;;;5093419;28;20364;-71
2021/06/16 04:18:44;;;;;;;2.13;1.30;;;;;;;;;;5092643;28;20036;-70
2021/06/16 04:21:10;;;;;;;1.27;1.10;;;;;;;;;;5093712;28;20077;-71
2021/06/16 04:23:36;;;;;;;1.40;1.30;;;;;;;;;;5093333;28;20028;-71
2021/06/16 04:26:02;;;;;;;1.98;1.23;;;;;;;;;;5092963;28;20032;-71
2021/06/16 04:28:28;;;;;;;1.00;1.00;;;;;;;;;;5092743;28;20026;-71
2021/06/16 04:30:54;;;;;;;1.50;1.40;;;;;;;;;;5094056;28;20596;-70
2021/06/16 04:33:21;;;;;;;1.02;1.02;;;;;;;;;;5095159;28;20024;-72
2021/06/16 04:35:47;;;;;;;1.48;1.20;;;;;;;;;;5093336;28;20038;-71
2021/06/16 04:38:13;;;;;;;1.33;1.23;;;;;;;;;;5092622;28;20039;-71
2021/06/16 04:40:39;;;;;;;1.23;1.20;;;;;;;;;;5092023;28;20032;-71
2021/06/16 04:43:05;;;;;;;1.38;1.27;;;;;;;;;;5092889;28;20097;-71
2021/06/16 04:45:31;;;;;;;1.50;1.40;;;;;;;;;;5092736;28;20482;-71
2021/06/16 04:47:57;;;;;;;1.67;1.58;;;;;;;;;;5092779;28;20035;-72
2021/06/16 04:50:23;;;;;;;1.50;1.40;;;;;;;;;;5092006;28;20027;-71
2021/06/16 04:52:49;;;;;;;1.70;1.60;;;;;;;;;;5091336;28;20032;-72
2021/06/16 04:55:15;;;;;;;1.80;1.70;;;;;;;;;;5092148;28;20102;-72
2021/06/16 04:57:41;;;;;;;2.28;1.50;;;;;;;;;;5092756;28;20028;-71
2021/06/16 05:00:09;;;;;;;1.95;1.70;;;;;;;;;;5075816;28;20024;-72
2021/06/16 05:02:36;;;;;;;1.35;1.25;;;;;;;;;;5087198;28;20024;-71
2021/06/16 05:05:02;;;;;;;1.30;1.20;;;;;;;;;;5092716;28;20482;-71
2021/06/16 05:07:28;;;;;;;1.25;1.15;;;;;;;;;;5092571;28;20383;-72
2021/06/16 05:09:54;;;;;;;1.50;1.40;;;;;;;;;;5092933;28;20020;-72
2021/06/16 05:12:20;;;;;;;2.03;1.50;;;;;;;;;;5092682;28;20026;-72
2021/06/16 05:14:46;;;;;;;2.45;1.40;;;;;;;;;;5091775;28;20103;-71
2021/06/16 05:17:13;;;;;;;2.70;1.63;;;;;;;;;;5090966;28;20089;-72
2021/06/16 05:19:39;;;;;;;3.38;2.00;;;;;;;;;;5092299;28;20031;-73
2021/06/16 05:22:09;;;;;;;4.88;2.20;;;;;;;;;;5092339;28;20352;-72
2021/06/16 05:24:35;;;;;;;4.78;2.75;;;;;;;;;;5092345;28;20027;-72
2021/06/16 05:27:01;;;;;;;4.28;2.10;;;;;;;;;;5091587;28;20020;-72
2021/06/16 05:29:27;;;;;;;6.38;2.13;;;;;;;;;;5092273;28;20035;-72
2021/06/16 05:31:54;;;;;;;8.82;3.63;;;;;;;;;;5091899;28;20028;-72
2021/06/16 05:34:20;;;;;;;6.95;3.00;;;;;;;;;;5092355;28;20020;-72
2021/06/16 05:36:46;;;;;;;9.77;2.83;;;;;;;;;;5091616;28;20028;-72
2021/06/16 05:39:12;;;;;;;10.40;3.45;;;;;;;;;;5091252;28;20078;-72
2021/06/16 05:41:38;;;;;;;8.10;2.67;;;;;;;;;;5092181;28;20084;-71
2021/06/16 05:44:04;;;;;;;7.90;3.53;;;;;;;;;;5091402;28;20530;-71
2021/06/16 05:46:30;;;;;;;4.93;2.55;;;;;;;;;;5090496;28;20036;-72
2021/06/16 05:48:56;;;;;;;9.30;3.10;;;;;;;;;;5091426;28;20027;-70
2021/06/16 05:51:22;;;;;;;5.95;2.55;;;;;;;;;;5091740;28;20101;-72
2021/06/16 05:53:49;;;;;;;7.93;2.80;;;;;;;;;;5091550;28;20023;-72
2021/06/16 05:56:15;;;;;;;7.93;2.97;;;;;;;;;;5091928;28;20063;-72
2021/06/16 05:58:41;;;;;;;6.00;2.92;;;;;;;;;;5089367;28;20118;-72
2021/06/16 06:01:07;;;;;;;9.13;2.75;;;;;;;;;;5092082;28;20482;-71
2021/06/16 06:03:34;;;;;;;6.70;2.95;;;;;;;;;;5091275;28;20031;-71
2021/06/16 06:06:00;;;;;;;12.63;3.47;;;;;;;;;;5093031;28;20445;-71
2021/06/16 06:08:27;;;;;;;12.00;2.95;;;;;;;;;;5096215;28;20084;-70
2021/06/16 06:10:53;;;;;;;9.45;3.03;;;;;;;;;;5096448;28;20028;-72
2021/06/16 06:13:20;;;;;;;8.95;3.00;;;;;;;;;;5094964;28;20051;-72
2021/06/16 06:15:46;;;;;;;5.93;3.00;;;;;;;;;;5095923;28;20020;-72
2021/06/16 06:18:12;;;;;;;3.05;2.50;;;;;;;;;;5095922;28;20081;-71
2021/06/16 06:20:38;;;;;;;9.30;2.75;;;;;;;;;;5096020;28;20059;-72
2021/06/16 06:23:05;;;;;;;8.75;2.78;;;;;;;;;;5095904;28;20036;-72
2021/06/16 06:25:31;;;;;;;5.35;2.58;;;;;;;;;;5095916;28;20028;-72
2021/06/16 06:27:57;;;;;;;8.27;2.85;;;;;;;;;;5095502;28;20099;-72
2021/06/16 06:30:23;;;;;;;8.13;2.72;;;;;;;;;;5095600;28;20242;-71
2021/06/16 06:32:49;;;;;;;7.97;2.28;;;;;;;;;;5095068;28;20119;-71
2021/06/16 06:35:15;;;;;;;7.72;2.83;;;;;;;;;;5095729;28;20039;-72
2021/06/16 06:37:41;;;;;;;6.25;2.60;;;;;;;;;;5095041;28;20107;-72
2021/06/16 06:40:08;;;;;;;10.10;2.85;;;;;;;;;;5095129;28;20451;-72
2021/06/16 06:42:34;;;;;;;7.63;2.60;;;;;;;;;;5094877;28;20058;-72
2021/06/16 06:45:00;;;;;;;4.13;3.00;;;;;;;;;;5094894;28;20039;-71
2021/06/16 06:47:26;;;;;;;8.93;2.65;;;;;;;;;;5094696;28;20035;-71
2021/06/16 06:49:53;;;;;;;7.28;2.47;;;;;;;;;;5094695;28;20024;-71
2021/06/16 06:52:19;;;;;;;7.18;3.05;;;;;;;;;;5095041;28;20153;-71
2021/06/16 06:54:45;;;;;;;8.00;2.63;;;;;;;;;;5094488;28;20020;-71
2021/06/16 06:57:11;;;;;;;8.02;3.47;;;;;;;;;;5095102;28;20069;-71
2021/06/16 06:59:37;;;;;;;11.52;4.80;;;;;;;;;;5082412;28;20024;-71
2021/06/16 07:02:04;;;;;;;8.15;2.55;;;;;;;;;;5091944;28;20090;-71
2021/06/16 07:04:30;;;;;;;12.80;3.28;;;;;;;;;;5094314;28;20024;-70
2021/06/16 07:06:56;;;;;;;11.32;3.17;;;;;;;;;;5093659;28;20051;-70
2021/06/16 07:09:24;;;;;;;13.35;2.83;;;;;;;;;;5094669;28;20031;-71
2021/06/16 07:11:50;;;;;;;7.72;3.35;;;;;;;;;;5094557;28;20020;-71
2021/06/16 07:14:16;;;;;;;9.65;2.65;;;;;;;;;;5094958;28;20027;-71
2021/06/16 07:16:42;;;;;;;8.95;3.00;;;;;;;;;;5093000;28;20085;-71
2021/06/16 07:19:08;;;;;;;10.23;3.05;;;;;;;;;;5091022;28;20024;-71
2021/06/16 07:21:34;;;;;;;8.70;2.97;;;;;;;;;;5093977;28;20035;-71
2021/06/16 07:24:01;;;;;;;8.80;2.60;;;;;;;;;;5094628;28;20016;-70
2021/06/16 07:26:27;;;;;;;11.77;3.13;;;;;;;;;;5094242;28;20020;-71
2021/06/16 07:28:53;;;;;;;7.93;2.72;;;;;;;;;;5094100;28;20028;-70
2021/06/16 07:31:19;;;;;;;6.05;2.50;;;;;;;;;;5094369;28;20107;-71
2021/06/16 07:33:45;;;;;;;10.35;2.92;;;;;;;;;;5093700;28;20501;-71
2021/06/16 07:36:11;;;;;;;11.07;3.20;;;;;;;;;;5093015;28;20020;-71
2021/06/16 07:38:37;;;;;;;6.78;2.70;;;;;;;;;;5093688;28;20035;-71
2021/06/16 07:41:03;;;;;;;6.68;2.55;;;;;;;;;;5093649;28;20515;-71
2021/06/16 07:43:29;;;;;;;11.48;4.45;;;;;;;;;;5093855;28;20112;-71
2021/06/16 07:45:55;;;;;;;6.68;3.42;;;;;;;;;;5093946;28;20085;-72
2021/06/16 07:48:21;;;;;;;8.55;2.63;;;;;;;;;;5093366;28;20031;-71
2021/06/16 07:50:47;;;;;;;11.00;3.25;;;;;;;;;;5092687;28;20043;-71
2021/06/16 07:53:14;;;;;;;9.15;2.35;;;;;;;;;;5092580;28;20422;-71
2021/06/16 07:55:40;;;;;;;11.75;3.15;;;;;;;;;;5093539;28;20047;-70
2021/06/16 07:58:07;;;;;;;8.80;2.78;;;;;;;;;;5093960;28;20077;-71
2021/06/16 08:00:34;;;;;;;7.40;3.20;;;;;;;;;;5093072;28;20431;-71
2021/06/16 08:03:00;;;;;;;9.60;3.00;;;;;;;;;;5084298;28;20020;-70
2021/06/16 08:05:26;;;;;;;6.93;2.53;;;;;;;;;;5091208;28;20051;-70
2021/06/16 08:07:52;;;;;;;10.90;3.03;;;;;;;;;;5092913;28;20020;-71
2021/06/16 08:10:18;;;;;;;7.63;3.13;;;;;;;;;;5093532;28;20028;-71
2021/06/16 08:12:44;;;;;;;8.60;3.17;;;;;;;;;;5092932;28;20027;-70
2021/06/16 08:15:11;;;;;;;7.25;3.00;;;;;;;;;;5073483;28;20032;-70
2021/06/16 08:17:37;;;;;;;9.43;3.55;;;;;;;;;;5091833;28;20051;-72
2021/06/16 08:20:05;;;;;;;10.95;2.78;;;;;;;;;;5093129;28;20040;-71
2021/06/16 08:22:31;;;;;;;7.72;2.63;;;;;;;;;;5092870;28;20031;-72
2021/06/16 08:25:00;;;;;;;7.20;3.10;;;;;;;;;;5092549;28;20055;-71
2021/06/16 08:27:27;;;;;;;3.80;2.70;;;;;;;;;;5090787;28;20016;-69
2021/06/16 08:29:53;;;;;;;12.07;3.45;;;;;;;;;;5092405;28;20043;-71
2021/06/16 08:32:19;;;;;;;10.25;4.50;;;;;;;;;;5092627;28;20034;-71
2021/06/16 08:34:45;;;;;;;8.55;2.97;;;;;;;;;;5092427;28;20046;-72
2021/06/16 08:37:11;;;;;;;6.38;2.95;;;;;;;;;;5092398;28;20019;-72
2021/06/16 08:39:38;;;;;;;12.15;2.85;;;;;;;;;;5091065;28;20024;-71
2021/06/16 08:42:04;;;;;;;5.03;3.17;;;;;;;;;;5088791;28;20516;-72
2021/06/16 08:44:31;;;;;;;13.32;3.30;;;;;;;;;;5092903;28;20056;-70
2021/06/16 08:46:57;;;;;;;8.30;3.05;;;;;;;;;;5092426;28;20425;-71
2021/06/16 08:49:23;;;;;;;7.88;3.20;;;;;;;;;;5092470;28;20427;-71
2021/06/16 08:51:49;;;;;;;7.00;2.95;;;;;;;;;;5093193;28;20058;-72
2021/06/16 08:54:15;;;;;;;11.68;3.88;;;;;;;;;;5091035;28;20115;-72
2021/06/16 08:56:42;;;;;;;9.05;2.75;;;;;;;;;;5091945;28;20509;-71
2021/06/16 08:59:08;;;;;;;7.25;3.33;;;;;;;;;;5088881;28;20024;-71
2021/06/16 09:01:34;;;;;;;14.15;4.13;;;;;;;;;;5082096;28;20071;-71
2021/06/16 09:04:00;;;;;;;7.88;2.72;;;;;;;;;;5090763;28;20020;-71
2021/06/16 09:06:30;;;;;;;9.82;3.45;;;;;;;;;;5092594;28;20044;-71
2021/06/16 09:08:57;;;;;;;9.82;3.25;;;;;;;;;;5091932;28;20048;-71
2021/06/16 09:11:24;;;;;;;9.85;3.00;;;;;;;;;;5092143;28;20028;-71
2021/06/16 09:13:50;;;;;;;8.88;2.72;;;;;;;;;;5091952;28;20027;-72
2021/06/16 09:16:27;;;;;;;8.75;2.97;;;;;;;;;;5092513;28;20394;-71
2021/06/16 09:18:53;;;;;;;7.38;2.60;;;;;;;;;;5091820;28;20036;-71
2021/06/16 09:21:39;;;;;;;10.02;3.00;;;;;;;;;;5092084;28;20501;-72
2021/06/16 09:24:06;;;;;;;10.45;3.22;;;;;;;;;;5087579;28;20482;-72
2021/06/16 09:26:33;;;;;;;10.55;4.32;;;;;;;;;;5092127;28;20036;-71
2021/06/16 09:28:59;;;;;;;7.38;3.15;;;;;;;;;;5092748;28;20033;-72
2021/06/16 09:31:25;;;;;;;9.30;3.20;;;;;;;;;;5091793;28;20043;-72
2021/06/16 09:33:52;;;;;;;7.28;2.88;;;;;;;;;;5092546;28;20020;-72
2021/06/16 09:36:20;;;;;;;7.53;2.80;;;;;;;;;;5092324;28;20097;-72
2021/06/16 09:38:48;;;;;;;7.97;2.72;;;;;;;;;;5092089;28;20032;-71
2021/06/16 09:41:16;;;;;;;7.97;2.80;;;;;;;;;;5091927;28;20084;-71
2021/06/16 09:43:42;;;;;;;8.70;3.10;;;;;;;;;;5092172;28;20020;-71
2021/06/16 09:46:10;;;;;;;7.28;2.40;;;;;;;;;;5092019;28;20058;-71
2021/06/16 09:48:37;;;;;;;7.68;3.03;;;;;;;;;;5091903;28;20032;-71
2021/06/16 09:51:14;;;;;;;6.07;2.90;;;;;;;;;;5090677;28;20380;-71
2021/06/16 09:54:25;;;;;;;8.70;2.70;;;;;;;;;;5092715;28;20024;-71
2021/06/16 09:56:53;;;;;;;6.32;2.63;;;;;;;;;;5091056;28;20039;-72
2021/06/16 09:59:38;;;;;;;6.15;2.60;;;;;;;;;;5091670;28;20058;-72
2021/06/16 10:02:04;;;;;;;5.07;2.20;;;;;;;;;;5091799;28;20024;-71
2021/06/16 10:04:42;;;;;;;3.33;2.00;;;;;;;;;;5092012;28;20065;-72
2021/06/16 10:07:10;;;;;;;8.00;2.88;;;;;;;;;;5091618;28;20044;-72
2021/06/16 10:09:36;;;;;;;3.70;2.05;;;;;;;;;;5091956;28;20028;-71
2021/06/16 10:12:03;;;;;;;6.32;2.13;;;;;;;;;;5091762;28;20550;-71
2021/06/16 10:14:29;;;;;;;7.18;2.53;;;;;;;;;;5088923;28;20496;-72
2021/06/16 10:16:55;;;;;;;8.13;2.47;;;;;;;;;;5090839;28;20409;-71
2021/06/16 10:19:21;;;;;;;4.38;2.50;;;;;;;;;;5091237;28;20028;-72
2021/06/16 10:21:47;;;;;;;6.72;2.20;;;;;;;;;;5089758;28;20028;-72
2021/06/16 10:24:13;;;;;;;6.82;2.70;;;;;;;;;;5091807;28;20508;-72
2021/06/16 10:26:39;;;;;;;7.72;2.55;;;;;;;;;;5091909;28;20044;-71
2021/06/16 10:29:10;;;;;;;5.70;2.40;;;;;;;;;;5091460;28;20025;-71
2021/06/16 10:31:38;;;;;;;8.13;2.25;;;;;;;;;;5079328;28;20031;-72
2021/06/16 10:34:04;;;;;;;10.52;3.13;;;;;;;;;;5072872;28;20066;-72
2021/06/16 10:36:32;;;;;;;4.05;2.25;;;;;;;;;;5091930;28;20407;-71
2021/06/16 10:39:01;;;;;;;4.45;2.20;;;;;;;;;;5078150;28;20107;-71
2021/06/16 10:41:39;;;;;;;6.20;2.25;;;;;;;;;;5085207;28;20120;-71
2021/06/16 10:44:13;;;;;;;5.13;2.22;;;;;;;;;;5077650;28;20383;-71
2021/06/16 10:46:50;;;;;;;6.38;2.45;;;;;;;;;;5088526;28;20109;-72
2021/06/16 10:49:36;;;;;;;7.10;2.60;;;;;;;;;;5091775;28;20573;-72
2021/06/16 10:52:03;;;;;;;6.97;2.85;;;;;;;;;;5093533;28;20028;-71
2021/06/16 10:54:30;;;;;;;11.05;2.85;;;;;;;;;;5091357;28;20031;-70
2021/06/16 10:56:59;;;;;;;7.80;2.10;;;;;;;;;;5082405;28;20048;-70
2021/06/16 10:59:43;;;;;;;4.40;2.20;;;;;;;;;;5085217;28;20027;-71
2021/06/16 11:02:16;;;;;;;6.07;2.40;;;;;;;;;;5085044;28;20024;-71
2021/06/16 11:04:42;;;;;;;9.07;2.35;;;;;;;;;;5075946;28;20032;-70
2021/06/16 11:07:27;;;;;;;6.72;2.38;;;;;;;;;;5082302;28;20044;-71
2021/06/16 11:09:54;;;;;;;7.97;3.10;;;;;;;;;;5080336;28;20100;-71
2021/06/16 11:12:30;;;;;;;3.10;1.85;;;;;;;;;;5079493;28;20269;-71
2021/06/16 11:15:00;;;;;;;7.63;2.83;;;;;;;;;;5084947;28;20025;-71
2021/06/16 11:17:35;;;;;;;4.78;2.30;;;;;;;;;;5077929;28;20039;-72
2021/06/16 11:20:05;;;;;;;8.05;2.58;;;;;;;;;;5080071;28;20027;-71
2021/06/16 11:22:33;;;;;;;8.13;2.58;;;;;;;;;;5086425;28;20135;-71
2021/06/16 11:25:06;;;;;;;11.15;3.22;;;;;;;;;;5087795;28;20040;-71
2021/06/16 11:27:56;;;;;;;6.40;3.15;;;;;;;;;;5083537;28;20020;-70
2021/06/16 11:30:34;;;;;;;8.02;2.97;;;;;;;;;;5086426;28;20031;-71
2021/06/16 11:35:39;;;;;;;6.43;2.15;;;;;;;;;;5079288;28;20056;-70
2021/06/16 11:38:05;;;;;;;4.18;2.35;;;;;;;;;;5085163;28;20093;-69
2021/06/16 11:40:31;;;;;;;4.38;2.00;;;;;;;;;;5081918;28;20020;-71
2021/06/16 11:42:58;;;;;;;7.63;2.40;;;;;;;;;;5088750;28;20021;-71
2021/06/16 11:45:28;;;;;;;3.90;2.42;;;;;;;;;;5083403;28;20025;-71
2021/06/16 11:47:56;;;;;;;9.27;3.13;;;;;;;;;;5077142;28;20070;-71
2021/06/16 11:50:26;;;;;;;5.38;2.20;;;;;;;;;;5091196;28;20483;-71
2021/06/16 11:52:58;;;;;;;8.88;2.83;;;;;;;;;;5077232;28;20027;-71
2021/06/16 11:55:39;;;;;;;2.38;1.98;;;;;;;;;;5076180;28;20035;-72
2021/06/16 11:58:21;;;;;;;6.95;2.40;;;;;;;;;;5084641;28;20486;-72
2021/06/16 12:00:50;;;;;;;5.07;2.60;;;;;;;;;;5074215;28;20406;-71
2021/06/16 12:03:16;;;;;;;6.03;2.55;;;;;;;;;;5077952;28;20032;-70
2021/06/16 12:05:42;;;;;;;4.75;2.10;;;;;;;;;;5082252;28;20068;-71
2021/06/16 12:08:08;;;;;;;6.53;2.20;;;;;;;;;;5083649;28;20031;-71
2021/06/16 12:10:34;;;;;;;5.55;2.58;;;;;;;;;;5083548;28;20024;-71
2021/06/16 12:13:06;;;;;;;5.22;2.30;;;;;;;;;;5084319;28;20016;-71
2021/06/16 12:15:36;;;;;;;3.28;2.38;;;;;;;;;;5083017;28;20032;-71
2021/06/16 12:18:03;;;;;;;6.53;2.35;;;;;;;;;;5078269;28;20058;-71
2021/06/16 12:20:40;;;;;;;4.75;2.47;;;;;;;;;;5093807;28;20519;-71
2021/06/16 12:23:21;;;;;;;5.35;2.50;;;;;;;;;;5088511;28;20100;-70
2021/06/16 12:25:48;;;;;;;7.80;2.58;;;;;;;;;;5087262;28;20035;-71
2021/06/16 12:28:15;;;;;;;4.05;2.20;;;;;;;;;;5078458;28;20383;-71
2021/06/16 12:30:42;;;;;;;5.30;2.97;;;;;;;;;;5093723;28;20043;-71
2021/06/16 12:33:15;;;;;;;5.30;3.15;;;;;;;;;;5093480;28;20103;-70
2021/06/16 12:35:53;;;;;;;6.45;2.28;;;;;;;;;;5088448;28;20074;-70
2021/06/16 12:38:33;;;;;;;6.80;2.72;;;;;;;;;;5081516;28;20051;-70
2021/06/16 12:40:59;;;;;;;5.95;2.65;;;;;;;;;;5082455;28;20531;-66
2021/06/16 12:43:26;;;;;;;3.97;2.03;;;;;;;;;;5082630;28;20042;-70
2021/06/16 12:45:56;;;;;;;5.68;2.67;;;;;;;;;;5075955;28;20383;-70
2021/06/16 12:48:26;;;;;;;5.15;2.55;;;;;;;;;;5082525;28;20029;-70
2021/06/16 12:51:00;;;;;;;8.25;2.50;;;;;;;;;;5080834;28;20023;-71
2021/06/16 12:53:27;;;;;;;7.13;2.90;;;;;;;;;;5091930;28;20016;-70
2021/06/16 12:55:54;;;;;;;8.80;2.60;;;;;;;;;;5078690;28;20040;-71
2021/06/16 12:58:22;;;;;;;7.50;2.20;;;;;;;;;;5085362;28;20028;-72
2021/06/16 13:00:49;;;;;;;4.50;2.30;;;;;;;;;;5074121;28;20025;-71
2021/06/16 13:03:17;;;;;;;8.02;2.30;;;;;;;;;;5073919;28;20048;-71
2021/06/16 13:05:50;;;;;;;5.80;2.85;;;;;;;;;;5077353;28;20047;-70
2021/06/16 13:08:32;;;;;;;9.77;3.08;;;;;;;;;;5073732;28;20518;-71
2021/06/16 13:10:58;;;;;;;4.55;2.67;;;;;;;;;;5074346;28;20031;-71
2021/06/16 13:13:24;;;;;;;4.00;1.90;;;;;;;;;;5078199;28;20518;-71
2021/06/16 13:15:51;;;;;;;4.75;2.22;;;;;;;;;;5081054;28;20348;-70
2021/06/16 13:18:17;;;;;;;5.38;2.88;;;;;;;;;;5083561;28;20035;-71
2021/06/16 13:20:45;;;;;;;5.93;2.30;;;;;;;;;;5088825;28;20429;-71
2021/06/16 13:23:13;;;;;;;7.85;2.30;;;;;;;;;;5086010;28;20448;-70
2021/06/16 13:25:42;;;;;;;4.38;2.30;;;;;;;;;;5084601;28;20540;-71
2021/06/16 13:28:08;;;;;;;4.75;1.77;;;;;;;;;;5082839;28;20035;-71
2021/06/16 13:30:39;;;;;;;4.45;2.60;;;;;;;;;;5074805;28;20556;-71
2021/06/16 13:33:05;;;;;;;7.13;2.05;;;;;;;;;;5090748;28;20047;-71
2021/06/16 13:35:31;;;;;;;6.00;2.22;;;;;;;;;;5077729;28;20033;-71
2021/06/16 13:37:58;;;;;;;4.53;1.90;;;;;;;;;;5089197;28;20027;-71
2021/06/16 13:40:24;;;;;;;6.85;2.63;;;;;;;;;;5092579;28;20395;-72
2021/06/16 13:42:51;;;;;;;5.88;2.50;;;;;;;;;;5091281;28;20055;-71
2021/06/16 13:45:17;;;;;;;5.50;1.88;;;;;;;;;;5091413;28;20039;-71
2021/06/16 13:47:44;;;;;;;7.95;2.25;;;;;;;;;;5086646;28;20517;-71
2021/06/16 13:50:10;;;;;;;4.57;2.20;;;;;;;;;;5092231;28;20028;-71
2021/06/16 13:52:36;;;;;;;4.88;2.13;;;;;;;;;;5092391;28;20016;-71
2021/06/16 13:55:03;;;;;;;3.58;2.20;;;;;;;;;;5077932;28;20031;-71
2021/06/16 13:57:29;;;;;;;4.47;2.10;;;;;;;;;;5077017;28;20567;-71
2021/06/16 13:59:55;;;;;;;7.07;2.30;;;;;;;;;;5082004;28;20374;-72
2021/06/16 14:02:21;;;;;;;5.32;2.50;;;;;;;;;;5084978;28;20021;-72
2021/06/16 14:04:47;;;;;;;5.13;2.33;;;;;;;;;;5077975;28;20020;-71
2021/06/16 14:07:13;;;;;;;7.07;2.05;;;;;;;;;;5071716;28;20044;-69
2021/06/16 14:09:40;;;;;;;5.97;2.20;;;;;;;;;;5072989;28;20074;-72
2021/06/16 14:12:06;;;;;;;3.22;2.17;;;;;;;;;;5076913;28;20505;-72
2021/06/16 14:14:32;;;;;;;4.03;1.98;;;;;;;;;;5077512;28;20024;-72
2021/06/16 14:16:58;;;;;;;2.38;2.00;;;;;;;;;;5078845;28;20032;-71
2021/06/16 14:19:24;;;;;;;4.47;1.90;;;;;;;;;;5087472;28;20479;-72
2021/06/16 14:21:51;;;;;;;5.80;2.63;;;;;;;;;;5090114;28;20024;-72
2021/06/16 14:24:17;;;;;;;3.15;1.90;;;;;;;;;;5078144;28;20048;-72
2021/06/16 14:26:44;;;;;;;3.50;1.60;;;;;;;;;;5086003;28;20036;-73
2021/06/16 14:29:10;;;;;;;3.28;2.05;;;;;;;;;;5094227;28;20024;-72
2021/06/16 14:31:37;;;;;;;3.60;2.60;;;;;;;;;;5075433;28;20059;-72
2021/06/16 14:34:03;;;;;;;4.13;2.30;;;;;;;;;;5076677;28;20372;-72
2021/06/16 14:36:29;;;;;;;4.30;1.80;;;;;;;;;;5076529;28;20113;-72
2021/06/16 14:38:56;;;;;;;4.40;1.70;;;;;;;;;;5076648;28;20020;-72
2021/06/16 14:41:22;;;;;;;3.33;1.70;;;;;;;;;;5078349;28;20052;-72
2021/06/16 14:43:48;;;;;;;4.10;1.90;;;;;;;;;;5077411;28;20483;-72
2021/06/16 14:46:14;;;;;;;3.63;1.92;;;;;;;;;;5091370;28;20028;-72
2021/06/16 14:48:40;;;;;;;4.15;1.80;;;;;;;;;;5090880;28;20483;-72